createdAt,value
2023-05-01T00:00:54.359Z,77.88
2023-05-01T00:01:56.265Z,77.76
2023-05-01T00:02:58.278Z,77.58
2023-05-01T00:04:00.306Z,77.34
2023-05-01T00:05:03.150Z,76.34
2023-05-01T00:06:05.902Z,75.95
2023-05-01T00:07:08.041Z,75.97
2023-05-01T00:08:10.348Z,76.63
2023-05-01T00:09:12.252Z,76.10
2023-05-01T00:10:14.221Z,76.15
2023-05-01T00:11:17.036Z,76.28
2023-05-01T00:12:18.920Z,76.05
2023-05-01T00:13:22.290Z,76.25
2023-05-01T00:14:24.145Z,76.76
2023-05-01T00:15:26.055Z,76.72
2023-05-01T00:16:27.914Z,75.97
2023-05-01T00:17:31.399Z,76.27
2023-05-01T00:18:33.234Z,76.35
2023-05-01T00:19:35.070Z,75.70
2023-05-01T00:20:37.034Z,76.57
2023-05-01T00:21:38.879Z,77.44
2023-05-01T00:22:40.763Z,77.84
2023-05-01T00:23:42.671Z,78.07
2023-05-01T00:24:44.644Z,78.21
2023-05-01T00:25:46.519Z,78.18
2023-05-01T00:26:48.379Z,78.96
2023-05-01T00:27:50.187Z,78.96
2023-05-01T00:28:52.079Z,79.21
2023-05-01T00:29:54.192Z,78.40
2023-05-01T00:30:57.620Z,78.66
2023-05-01T00:31:59.575Z,78.55
2023-05-01T00:33:02.157Z,79.54
2023-05-01T00:34:05.395Z,78.81
2023-05-01T00:35:07.341Z,77.94
2023-05-01T00:36:10.281Z,78.46
2023-05-01T00:37:12.278Z,78.73
2023-05-01T00:38:14.142Z,78.04
2023-05-01T00:39:15.967Z,78.00
2023-05-01T00:40:17.907Z,77.17
2023-05-01T00:41:19.873Z,76.89
2023-05-01T00:42:21.700Z,76.99
2023-05-01T00:43:23.669Z,76.80
2023-05-01T00:44:25.692Z,76.89
2023-05-01T00:45:27.624Z,76.80
2023-05-01T00:46:30.505Z,76.94
2023-05-01T00:47:33.715Z,76.98
2023-05-01T00:48:36.278Z,76.46
2023-05-01T00:49:38.137Z,76.32
2023-05-01T00:50:40.570Z,76.62
2023-05-01T00:51:43.292Z,76.63
2023-05-01T00:52:46.641Z,76.40
2023-05-01T00:53:48.550Z,76.12
2023-05-01T00:54:52.418Z,76.07
2023-05-01T00:55:57.004Z,76.67
2023-05-01T00:56:58.804Z,76.02
2023-05-01T00:58:01.591Z,76.58
2023-05-01T00:59:03.490Z,76.34
2023-05-01T01:00:05.730Z,76.49
2023-05-01T01:01:09.209Z,76.92
2023-05-01T01:02:13.028Z,76.07
2023-05-01T01:03:15.013Z,77.16
2023-05-01T01:04:16.962Z,76.63
2023-05-01T01:05:19.295Z,76.56
2023-05-01T01:06:21.062Z,76.60
2023-05-01T01:07:41.720Z,77.00
2023-05-01T01:08:49.527Z,77.17
2023-05-01T01:10:05.554Z,77.09
2023-05-01T01:11:08.597Z,77.77
2023-05-01T01:12:22.925Z,76.57
2023-05-01T01:13:32.816Z,77.70
2023-05-01T01:14:42.617Z,78.15
2023-05-01T01:15:44.950Z,77.84
2023-05-01T01:16:54.323Z,78.07
2023-05-01T01:18:05.569Z,78.99
2023-05-01T01:19:08.172Z,78.46
2023-05-01T01:20:19.203Z,77.98
2023-05-01T01:21:28.657Z,78.90
2023-05-01T01:22:31.778Z,78.16
2023-05-01T01:23:42.451Z,77.71
2023-05-01T01:25:03.010Z,76.98
2023-05-01T01:26:24.475Z,77.82
2023-05-01T01:27:26.350Z,78.22
2023-05-01T01:28:30.970Z,77.63
2023-05-01T01:29:32.787Z,77.71
2023-05-01T01:30:53.444Z,77.92
2023-05-01T01:32:14.009Z,76.95
2023-05-01T01:33:15.855Z,77.47
2023-05-01T01:34:24.172Z,78.15
2023-05-01T01:35:26.718Z,77.05
2023-05-01T01:36:39.296Z,77.66
2023-05-01T01:37:48.793Z,77.49
2023-05-01T01:39:04.014Z,76.18
2023-05-01T01:40:08.030Z,76.91
2023-05-01T01:41:15.184Z,76.35
2023-05-01T01:42:20.946Z,77.56
2023-05-01T01:43:23.526Z,77.16
2023-05-01T01:44:28.222Z,77.23
2023-05-01T01:45:43.463Z,77.09
2023-05-01T01:46:45.706Z,76.37
2023-05-01T01:47:47.972Z,76.71
2023-05-01T01:48:50.350Z,76.76
2023-05-01T01:49:53.012Z,76.78
2023-05-01T01:50:57.659Z,76.66
2023-05-01T01:52:02.653Z,76.59
2023-05-01T01:53:06.057Z,76.69
2023-05-01T01:54:08.833Z,76.68
2023-05-01T01:55:12.589Z,76.82
2023-05-01T01:56:15.196Z,76.39
2023-05-01T01:57:19.005Z,77.34
2023-05-01T01:58:21.928Z,77.33
2023-05-01T01:59:24.616Z,78.13
2023-05-01T02:00:28.798Z,77.87
2023-05-01T02:01:31.196Z,77.77
2023-05-01T02:02:33.367Z,78.27
2023-05-01T02:03:36.351Z,78.20
2023-05-01T02:04:39.577Z,77.65
2023-05-01T02:05:42.957Z,77.48
2023-05-01T02:06:46.020Z,78.04
2023-05-01T02:07:50.160Z,77.88
2023-05-01T02:08:52.675Z,77.41
2023-05-01T02:09:55.371Z,77.36
2023-05-01T02:11:01.985Z,77.39
2023-05-01T02:12:06.069Z,76.92
2023-05-01T02:13:09.355Z,77.28
2023-05-01T02:14:12.075Z,77.87
2023-05-01T02:15:15.805Z,77.49
2023-05-01T02:16:18.645Z,78.65
2023-05-01T02:17:21.838Z,78.63
2023-05-01T02:18:24.710Z,78.79
2023-05-01T02:19:27.030Z,78.91
2023-05-01T02:20:29.466Z,79.25
2023-05-01T02:21:32.608Z,79.94
2023-05-01T02:22:34.641Z,79.59
2023-05-01T02:23:37.385Z,79.21
2023-05-01T02:24:40.464Z,79.75
2023-05-01T02:25:43.990Z,80.24
2023-05-01T02:26:50.148Z,79.11
2023-05-01T02:28:00.495Z,80.02
2023-05-01T02:29:02.413Z,80.00
2023-05-01T02:30:06.158Z,78.69
2023-05-01T02:31:08.400Z,78.81
2023-05-01T02:32:10.439Z,79.09
2023-05-01T02:33:13.165Z,79.29
2023-05-01T02:34:15.106Z,78.81
2023-05-01T02:35:18.102Z,79.04
2023-05-01T02:36:19.985Z,79.31
2023-05-01T02:37:21.973Z,79.53
2023-05-01T02:38:23.836Z,78.61
2023-05-01T02:39:25.757Z,78.64
2023-05-01T02:40:29.159Z,79.25
2023-05-01T02:41:33.521Z,78.76
2023-05-01T02:42:38.228Z,78.85
2023-05-01T02:43:42.009Z,78.96
2023-05-01T02:44:47.497Z,78.38
2023-05-01T02:45:49.768Z,77.90
2023-05-01T02:46:52.481Z,78.72
2023-05-01T02:47:56.770Z,78.94
2023-05-01T02:49:01.788Z,79.41
2023-05-01T02:50:04.767Z,79.81
2023-05-01T02:51:07.475Z,79.37
2023-05-01T02:52:09.411Z,79.96
2023-05-01T02:53:12.608Z,80.24
2023-05-01T02:54:14.596Z,79.64
2023-05-01T02:55:17.866Z,80.15
2023-05-01T02:56:19.707Z,79.33
2023-05-01T02:57:22.055Z,79.80
2023-05-01T02:58:23.992Z,79.98
2023-05-01T02:59:26.038Z,79.63
2023-05-01T03:00:28.519Z,78.85
2023-05-01T03:01:30.421Z,79.13
2023-05-01T03:02:32.551Z,80.30
2023-05-01T03:03:34.413Z,79.79
2023-05-01T03:04:36.372Z,80.22
2023-05-01T03:05:38.864Z,79.34
2023-05-01T03:06:40.684Z,80.09
2023-05-01T03:07:42.499Z,79.80
2023-05-01T03:08:44.623Z,79.48
2023-05-01T03:09:46.593Z,79.11
2023-05-01T03:10:48.452Z,79.01
2023-05-01T03:11:50.271Z,78.86
2023-05-01T03:12:52.076Z,79.29
2023-05-01T03:13:53.936Z,79.13
2023-05-01T03:14:55.890Z,78.44
2023-05-01T03:15:58.425Z,79.48
2023-05-01T03:17:00.457Z,78.17
2023-05-01T03:18:02.368Z,78.78
2023-05-01T03:19:04.250Z,79.15
2023-05-01T03:20:06.614Z,79.18
2023-05-01T03:21:08.554Z,79.24
2023-05-01T03:22:10.364Z,79.18
2023-05-01T03:23:12.382Z,79.33
2023-05-01T03:24:14.231Z,79.26
2023-05-01T03:25:16.107Z,79.68
2023-05-01T03:26:17.942Z,79.65
2023-05-01T03:27:19.787Z,79.20
2023-05-01T03:28:23.847Z,79.12
2023-05-01T03:29:25.839Z,78.93
2023-05-01T03:30:27.750Z,78.97
2023-05-01T03:31:29.742Z,79.44
2023-05-01T03:32:32.382Z,79.34
2023-05-01T03:33:34.307Z,78.65
2023-05-01T03:34:36.188Z,78.67
2023-05-01T03:35:38.360Z,78.80
2023-05-01T03:36:40.729Z,79.61
2023-05-01T03:37:42.588Z,78.80
2023-05-01T03:38:44.446Z,79.32
2023-05-01T03:39:46.878Z,79.87
2023-05-01T03:40:48.720Z,80.56
2023-05-01T03:41:50.631Z,80.48
2023-05-01T03:42:52.515Z,80.63
2023-05-01T03:43:54.421Z,80.30
2023-05-01T03:44:56.354Z,79.89
2023-05-01T03:45:58.637Z,80.55
2023-05-01T03:47:00.551Z,80.96
2023-05-01T03:48:02.765Z,80.85
2023-05-01T03:49:05.018Z,80.40
2023-05-01T03:50:07.304Z,79.85
2023-05-01T03:51:09.186Z,79.32
2023-05-01T03:52:12.164Z,79.50
2023-05-01T03:53:14.550Z,79.15
2023-05-01T03:54:16.435Z,79.55
2023-05-01T03:55:18.322Z,80.00
2023-05-01T03:56:20.173Z,79.14
2023-05-01T03:57:23.538Z,80.01
2023-05-01T03:58:25.462Z,79.95
2023-05-01T03:59:27.401Z,80.00
2023-05-01T04:00:29.257Z,79.99
2023-05-01T04:01:33.847Z,79.18
2023-05-01T04:02:36.722Z,79.63
2023-05-01T04:03:39.049Z,79.98
2023-05-01T04:04:41.066Z,79.97
2023-05-01T04:05:43.656Z,79.56
2023-05-01T04:06:45.677Z,79.33
2023-05-01T04:07:47.712Z,79.67
2023-05-01T04:08:49.534Z,79.27
2023-05-01T04:09:51.474Z,79.00
2023-05-01T04:10:53.328Z,79.84
2023-05-01T04:11:55.148Z,79.99
2023-05-01T04:12:57.031Z,81.56
2023-05-01T04:13:58.910Z,80.74
2023-05-01T04:15:00.760Z,80.93
2023-05-01T04:16:02.706Z,81.18
2023-05-01T04:17:04.620Z,81.38
2023-05-01T04:18:06.519Z,81.54
2023-05-01T04:19:09.484Z,81.14
2023-05-01T04:20:11.653Z,81.46
2023-05-01T04:21:14.868Z,81.77
2023-05-01T04:22:16.969Z,81.67
2023-05-01T04:23:18.891Z,81.48
2023-05-01T04:24:20.840Z,81.18
2023-05-01T04:25:22.720Z,81.37
2023-05-01T04:26:24.547Z,80.63
2023-05-01T04:27:26.755Z,80.55
2023-05-01T04:28:31.409Z,80.82
2023-05-01T04:29:33.343Z,81.03
2023-05-01T04:30:35.159Z,81.18
2023-05-01T04:31:37.220Z,80.83
2023-05-01T04:32:39.182Z,80.70
2023-05-01T04:33:41.054Z,80.38
2023-05-01T04:34:43.584Z,80.69
2023-05-01T04:35:45.492Z,80.80
2023-05-01T04:36:47.376Z,80.34
2023-05-01T04:37:49.196Z,80.70
2023-05-01T04:38:51.109Z,80.68
2023-05-01T04:39:53.746Z,80.96
2023-05-01T04:40:56.474Z,81.52
2023-05-01T04:41:58.405Z,80.58
2023-05-01T04:43:01.177Z,81.16
2023-05-01T04:44:03.462Z,81.30
2023-05-01T04:45:05.581Z,81.25
2023-05-01T04:46:07.519Z,80.60
2023-05-01T04:47:09.525Z,80.75
2023-05-01T04:48:11.646Z,80.48
2023-05-01T04:49:13.697Z,80.94
2023-05-01T04:50:15.878Z,81.58
2023-05-01T04:51:17.777Z,81.80
2023-05-01T04:52:19.622Z,81.14
2023-05-01T04:53:21.461Z,81.64
2023-05-01T04:54:24.351Z,80.96
2023-05-01T04:55:26.167Z,81.70
2023-05-01T04:56:28.140Z,81.85
2023-05-01T04:57:30.144Z,82.01
2023-05-01T04:58:32.071Z,81.65
2023-05-01T04:59:34.140Z,80.91
2023-05-01T05:00:35.928Z,81.35
2023-05-01T05:01:37.942Z,80.75
2023-05-01T05:02:39.810Z,80.67
2023-05-01T05:03:41.924Z,80.91
2023-05-01T05:04:43.947Z,80.04
2023-05-01T05:05:46.888Z,80.98
2023-05-01T05:06:49.002Z,80.76
2023-05-01T05:07:50.978Z,81.44
2023-05-01T05:08:52.864Z,81.25
2023-05-01T05:09:54.958Z,81.34
2023-05-01T05:10:58.576Z,80.66
2023-05-01T05:12:00.407Z,81.90
2023-05-01T05:13:02.234Z,80.64
2023-05-01T05:14:04.310Z,82.02
2023-05-01T05:15:06.494Z,81.17
2023-05-01T05:16:08.713Z,81.30
2023-05-01T05:17:10.610Z,82.18
2023-05-01T05:18:12.549Z,82.05
2023-05-01T05:19:14.450Z,82.57
2023-05-01T05:20:16.551Z,81.84
2023-05-01T05:21:18.581Z,81.60
2023-05-01T05:22:20.782Z,81.47
2023-05-01T05:23:22.621Z,82.06
2023-05-01T05:24:24.482Z,80.86
2023-05-01T05:25:26.372Z,80.84
2023-05-01T05:26:28.879Z,80.69
2023-05-01T05:27:38.238Z,81.14
2023-05-01T05:28:41.150Z,81.45
2023-05-01T05:29:43.034Z,82.61
2023-05-01T05:30:45.098Z,82.14
2023-05-01T05:31:47.660Z,82.62
2023-05-01T05:32:49.638Z,82.45
2023-05-01T05:33:51.485Z,81.60
2023-05-01T05:34:53.438Z,82.05
2023-05-01T05:35:55.419Z,81.62
2023-05-01T05:36:57.337Z,81.46
2023-05-01T05:37:59.596Z,81.69
2023-05-01T05:39:01.502Z,81.58
2023-05-01T05:40:03.415Z,81.67
2023-05-01T05:41:05.347Z,82.06
2023-05-01T05:42:07.198Z,81.64
2023-05-01T05:43:10.119Z,82.78
2023-05-01T05:44:11.986Z,81.69
2023-05-01T05:45:13.822Z,82.18
2023-05-01T05:46:15.843Z,81.99
2023-05-01T05:47:17.763Z,83.03
2023-05-01T05:48:19.574Z,83.76
2023-05-01T05:49:21.413Z,83.16
2023-05-01T05:50:23.298Z,82.51
2023-05-01T05:51:25.222Z,83.61
2023-05-01T05:52:27.069Z,83.97
2023-05-01T05:53:29.044Z,83.68
2023-05-01T05:54:30.896Z,83.47
2023-05-01T05:55:32.778Z,82.72
2023-05-01T05:56:34.620Z,83.35
2023-05-01T05:57:38.280Z,84.48
2023-05-01T05:58:40.160Z,83.83
2023-05-01T05:59:42.190Z,84.13
2023-05-01T06:00:44.216Z,84.11
2023-05-01T06:01:46.100Z,83.20
2023-05-01T06:02:48.909Z,82.95
2023-05-01T06:03:50.882Z,83.55
2023-05-01T06:04:52.767Z,83.28
2023-05-01T06:05:54.727Z,83.62
2023-05-01T06:06:58.098Z,82.90
2023-05-01T06:08:00.190Z,84.07
2023-05-01T06:09:04.413Z,84.80
2023-05-01T06:10:06.963Z,84.48
2023-05-01T06:11:09.007Z,83.82
2023-05-01T06:12:10.897Z,83.63
2023-05-01T06:13:14.917Z,82.67
2023-05-01T06:14:20.154Z,82.65
2023-05-01T06:15:21.987Z,83.01
2023-05-01T06:16:23.946Z,82.92
2023-05-01T06:17:26.035Z,84.04
2023-05-01T06:18:28.074Z,84.05
2023-05-01T06:19:29.948Z,84.08
2023-05-01T06:20:32.261Z,83.75
2023-05-01T06:21:34.333Z,84.23
2023-05-01T06:22:36.359Z,84.39
2023-05-01T06:23:38.289Z,83.75
2023-05-01T06:24:40.178Z,83.62
2023-05-01T06:25:43.129Z,84.05
2023-05-01T06:26:44.975Z,83.75
2023-05-01T06:27:46.980Z,83.55
2023-05-01T06:28:48.899Z,84.22
2023-05-01T06:29:51.467Z,83.55
2023-05-01T06:30:53.443Z,83.28
2023-05-01T06:31:55.382Z,83.78
2023-05-01T06:32:57.281Z,85.22
2023-05-01T06:33:59.352Z,84.75
2023-05-01T06:35:01.230Z,85.29
2023-05-01T06:36:03.218Z,85.27
2023-05-01T06:37:07.912Z,85.58
2023-05-01T06:38:09.714Z,85.34
2023-05-01T06:39:11.648Z,84.84
2023-05-01T06:40:13.529Z,85.03
2023-05-01T06:41:16.650Z,85.11
2023-05-01T06:42:18.608Z,85.46
2023-05-01T06:43:20.643Z,85.59
2023-05-01T06:44:22.542Z,85.51
2023-05-01T06:45:24.436Z,85.70
2023-05-01T06:46:26.403Z,85.14
2023-05-01T06:47:28.430Z,84.39
2023-05-01T06:48:30.291Z,83.78
2023-05-01T06:49:32.273Z,83.30
2023-05-01T06:50:34.159Z,84.41
2023-05-01T06:51:36.097Z,84.24
2023-05-01T06:52:37.917Z,84.58
2023-05-01T06:53:40.809Z,84.87
2023-05-01T06:54:42.732Z,84.06
2023-05-01T06:55:44.666Z,78.21
2023-05-01T06:56:46.536Z,80.03
2023-05-01T06:57:48.504Z,80.86
2023-05-01T06:58:50.411Z,82.01
2023-05-01T06:59:52.339Z,81.78
2023-05-01T07:00:54.339Z,75.77
2023-05-01T07:01:56.306Z,68.44
2023-05-01T07:02:58.215Z,67.55
2023-05-01T07:04:00.175Z,65.76
2023-05-01T07:05:01.977Z,64.89
2023-05-01T07:06:03.997Z,64.61
2023-05-01T07:07:06.165Z,61.52
2023-05-01T07:08:09.926Z,59.34
2023-05-01T07:09:12.550Z,60.05
2023-05-01T07:10:14.473Z,60.57
2023-05-01T07:11:16.446Z,59.64
2023-05-01T07:12:18.309Z,60.01
2023-05-01T07:13:20.270Z,59.26
2023-05-01T07:14:22.118Z,57.90
2023-05-01T07:15:23.996Z,56.75
2023-05-01T07:16:25.973Z,55.41
2023-05-01T07:17:29.550Z,55.61
2023-05-01T07:18:31.404Z,54.10
2023-05-01T07:19:33.442Z,56.50
2023-05-01T07:20:35.475Z,56.74
2023-05-01T07:21:37.375Z,56.04
2023-05-01T07:22:39.205Z,56.30
2023-05-01T07:23:41.094Z,53.98
2023-05-01T07:24:42.879Z,56.20
2023-05-01T07:25:45.635Z,55.09
2023-05-01T07:26:47.496Z,54.50
2023-05-01T07:27:49.388Z,52.11
2023-05-01T07:28:51.230Z,52.19
2023-05-01T07:29:53.712Z,53.73
2023-05-01T07:30:55.662Z,52.72
2023-05-01T07:31:57.577Z,51.79
2023-05-01T07:32:59.543Z,50.71
2023-05-01T07:34:01.467Z,51.24
2023-05-01T07:35:03.836Z,52.12
2023-05-01T07:36:05.753Z,49.78
2023-05-01T07:37:07.792Z,50.05
2023-05-01T07:38:09.750Z,51.29
2023-05-01T07:39:12.453Z,49.13
2023-05-01T07:40:14.300Z,49.30
2023-05-01T07:41:16.235Z,49.25
2023-05-01T07:42:18.141Z,48.30
2023-05-01T07:43:19.984Z,48.50
2023-05-01T07:44:21.916Z,48.53
2023-05-01T07:45:23.784Z,47.89
2023-05-01T07:46:25.673Z,47.94
2023-05-01T07:47:27.940Z,48.43
2023-05-01T07:48:29.942Z,47.98
2023-05-01T07:49:35.988Z,48.53
2023-05-01T07:50:39.004Z,49.58
2023-05-01T07:51:40.915Z,49.02
2023-05-01T07:52:42.850Z,47.80
2023-05-01T07:53:44.747Z,47.59
2023-05-01T07:54:50.334Z,48.43
2023-05-01T07:55:52.375Z,46.83
2023-05-01T07:56:54.219Z,46.90
2023-05-01T07:57:56.356Z,46.56
2023-05-01T07:58:58.255Z,46.79
2023-05-01T08:00:00.243Z,46.95
2023-05-01T08:01:02.416Z,46.73
2023-05-01T08:02:04.259Z,48.10
2023-05-01T08:03:06.412Z,47.02
2023-05-01T08:04:08.636Z,46.90
2023-05-01T08:05:10.485Z,47.68
2023-05-01T08:06:12.308Z,48.40
2023-05-01T08:07:14.859Z,47.39
2023-05-01T08:08:20.928Z,47.31
2023-05-01T08:09:22.898Z,47.91
2023-05-01T08:10:24.829Z,47.59
2023-05-01T08:11:27.187Z,46.95
2023-05-01T08:12:29.352Z,47.78
2023-05-01T08:13:31.373Z,48.58
2023-05-01T08:14:33.334Z,47.65
2023-05-01T08:15:37.789Z,46.83
2023-05-01T08:16:39.817Z,46.53
2023-05-01T08:17:41.865Z,47.30
2023-05-01T08:18:43.772Z,46.76
2023-05-01T08:19:46.063Z,47.72
2023-05-01T08:20:50.909Z,47.18
2023-05-01T08:21:53.425Z,46.21
2023-05-01T08:22:55.256Z,47.02
2023-05-01T08:23:57.182Z,47.24
2023-05-01T08:24:59.027Z,46.64
2023-05-01T08:26:00.927Z,46.58
2023-05-01T08:27:02.990Z,46.37
2023-05-01T08:28:05.689Z,46.40
2023-05-01T08:29:07.599Z,45.22
2023-05-01T08:30:09.745Z,46.40
2023-05-01T08:31:11.691Z,45.87
2023-05-01T08:32:14.935Z,44.87
2023-05-01T08:33:16.848Z,45.73
2023-05-01T08:34:18.707Z,45.68
2023-05-01T08:35:21.105Z,45.05
2023-05-01T08:36:22.969Z,46.39
2023-05-01T08:37:24.950Z,45.60
2023-05-01T08:38:26.790Z,44.67
2023-05-01T08:39:28.805Z,44.00
2023-05-01T08:40:32.190Z,44.81
2023-05-01T08:41:35.067Z,45.20
2023-05-01T08:42:37.798Z,43.99
2023-05-01T08:43:41.167Z,43.72
2023-05-01T08:44:43.829Z,43.99
2023-05-01T08:45:47.387Z,44.77
2023-05-01T08:47:11.315Z,44.85
2023-05-01T08:48:14.437Z,43.99
2023-05-01T08:49:17.495Z,45.06
2023-05-01T08:50:19.760Z,43.55
2023-05-01T08:51:23.380Z,43.07
2023-05-01T08:52:27.521Z,43.09
2023-05-01T08:53:29.809Z,42.63
2023-05-01T08:54:33.497Z,43.33
2023-05-01T08:55:35.794Z,43.53
2023-05-01T08:56:39.003Z,42.42
2023-05-01T08:57:47.706Z,43.02
2023-05-01T08:58:50.938Z,43.67
2023-05-01T08:59:53.887Z,44.29
2023-05-01T09:00:58.646Z,41.99
2023-05-01T09:02:02.361Z,42.82
2023-05-01T09:03:05.074Z,43.26
2023-05-01T09:04:07.689Z,42.61
2023-05-01T09:05:09.682Z,42.20
2023-05-01T09:06:12.183Z,43.71
2023-05-01T09:07:14.568Z,42.92
2023-05-01T09:08:16.462Z,43.08
2023-05-01T09:09:18.343Z,44.40
2023-05-01T09:10:20.449Z,42.97
2023-05-01T09:11:23.423Z,42.06
2023-05-01T09:12:26.212Z,43.01
2023-05-01T09:13:28.088Z,43.11
2023-05-01T09:14:31.914Z,42.07
2023-05-01T09:15:34.092Z,42.40
2023-05-01T09:16:36.159Z,42.30
2023-05-01T09:17:38.318Z,42.18
2023-05-01T09:18:41.376Z,41.52
2023-05-01T09:19:43.393Z,42.35
2023-05-01T09:20:45.380Z,42.17
2023-05-01T09:21:47.850Z,42.54
2023-05-01T09:22:49.818Z,44.15
2023-05-01T09:23:52.033Z,41.47
2023-05-01T09:24:53.948Z,41.49
2023-05-01T09:25:56.526Z,41.45
2023-05-01T09:26:59.239Z,41.42
2023-05-01T09:28:02.225Z,42.40
2023-05-01T09:29:04.555Z,41.85
2023-05-01T09:30:08.034Z,41.51
2023-05-01T09:31:23.722Z,40.89
2023-05-01T09:32:28.695Z,41.68
2023-05-01T09:33:31.093Z,41.86
2023-05-01T09:34:32.910Z,40.66
2023-05-01T09:35:48.606Z,40.70
2023-05-01T09:36:50.511Z,40.03
2023-05-01T09:37:52.462Z,39.89
2023-05-01T09:38:54.530Z,40.86
2023-05-01T09:40:06.489Z,40.96
2023-05-01T09:41:08.706Z,41.06
2023-05-01T09:42:10.817Z,41.73
2023-05-01T09:43:12.753Z,40.78
2023-05-01T09:44:18.177Z,40.96
2023-05-01T09:45:20.417Z,41.24
2023-05-01T09:46:23.834Z,41.11
2023-05-01T09:47:28.734Z,41.17
2023-05-01T09:48:34.134Z,41.08
2023-05-01T09:49:48.476Z,41.63
2023-05-01T09:50:50.394Z,40.92
2023-05-01T09:51:52.492Z,40.23
2023-05-01T09:52:54.397Z,40.96
2023-05-01T09:54:00.253Z,41.37
2023-05-01T09:55:15.534Z,40.20
2023-05-01T09:56:18.262Z,41.53
2023-05-01T09:57:35.265Z,40.92
2023-05-01T09:58:37.198Z,39.54
2023-05-01T09:59:39.324Z,39.58
2023-05-01T10:00:48.172Z,40.22
2023-05-01T10:01:50.917Z,40.45
2023-05-01T10:02:53.389Z,39.99
2023-05-01T10:03:56.870Z,40.97
2023-05-01T10:04:59.526Z,39.44
2023-05-01T10:06:03.404Z,37.40
2023-05-01T10:07:13.645Z,39.35
2023-05-01T10:08:16.305Z,39.28
2023-05-01T10:09:27.676Z,37.80
2023-05-01T10:10:29.918Z,39.04
2023-05-01T10:11:31.968Z,39.14
2023-05-01T10:12:33.811Z,41.36
2023-05-01T10:13:35.747Z,38.14
2023-05-01T10:14:51.213Z,38.29
2023-05-01T10:15:53.124Z,38.64
2023-05-01T10:16:56.382Z,38.56
2023-05-01T10:17:58.377Z,38.61
2023-05-01T10:19:02.358Z,37.88
2023-05-01T10:20:07.736Z,37.59
2023-05-01T10:21:11.047Z,36.97
2023-05-01T10:22:12.944Z,37.30
2023-05-01T10:23:14.939Z,36.79
2023-05-01T10:24:17.494Z,37.10
2023-05-01T10:25:20.801Z,36.68
2023-05-01T10:26:22.694Z,35.94
2023-05-01T10:27:25.129Z,36.02
2023-05-01T10:28:28.898Z,36.99
2023-05-01T10:29:31.993Z,36.57
2023-05-01T10:30:35.987Z,37.08
2023-05-01T10:31:38.742Z,38.65
2023-05-01T10:32:42.414Z,38.16
2023-05-01T10:33:45.080Z,38.14
2023-05-01T10:34:56.004Z,37.60
2023-05-01T10:35:59.678Z,38.64
2023-05-01T10:37:04.512Z,38.28
2023-05-01T10:38:11.927Z,37.60
2023-05-01T10:39:32.792Z,37.04
2023-05-01T10:40:43.624Z,37.58
2023-05-01T10:42:02.219Z,37.46
2023-05-01T10:43:14.279Z,36.93
2023-05-01T10:44:26.637Z,38.74
2023-05-01T10:45:29.631Z,36.58
2023-05-01T10:46:31.662Z,36.50
2023-05-01T10:47:35.023Z,37.51
2023-05-01T10:48:39.874Z,38.43
2023-05-01T10:50:00.335Z,37.07
2023-05-01T10:51:12.767Z,36.18
2023-05-01T10:52:16.059Z,35.62
2023-05-01T10:53:18.464Z,36.51
2023-05-01T10:54:21.447Z,36.01
2023-05-01T10:55:33.213Z,35.85
2023-05-01T10:56:35.085Z,34.18
2023-05-01T10:57:46.596Z,35.27
2023-05-01T10:58:56.407Z,36.56
2023-05-01T11:00:04.374Z,36.65
2023-05-01T11:01:25.119Z,34.98
2023-05-01T11:02:27.223Z,35.05
2023-05-01T11:03:29.210Z,36.45
2023-05-01T11:04:48.610Z,34.83
2023-05-01T11:06:05.399Z,33.90
2023-05-01T11:07:11.610Z,34.75
2023-05-01T11:08:32.885Z,35.53
2023-05-01T11:09:44.831Z,34.52
2023-05-01T11:10:46.683Z,34.99
2023-05-01T11:11:50.412Z,33.55
2023-05-01T11:12:52.894Z,35.99
2023-05-01T11:14:05.113Z,34.54
2023-05-01T11:15:08.525Z,34.60
2023-05-01T11:16:29.092Z,33.93
2023-05-01T11:17:40.093Z,34.97
2023-05-01T11:18:48.140Z,36.91
2023-05-01T11:19:50.285Z,34.70
2023-05-01T11:20:52.215Z,34.44
2023-05-01T11:21:54.500Z,32.82
2023-05-01T11:22:57.480Z,34.01
2023-05-01T11:24:03.225Z,35.14
2023-05-01T11:25:17.537Z,34.06
2023-05-01T11:26:20.037Z,34.47
2023-05-01T11:27:22.126Z,34.97
2023-05-01T11:28:23.990Z,34.68
2023-05-01T11:29:30.789Z,35.39
2023-05-01T11:30:42.161Z,35.47
2023-05-01T11:31:48.644Z,33.94
2023-05-01T11:32:51.350Z,34.24
2023-05-01T11:33:53.813Z,33.83
2023-05-01T11:34:56.269Z,34.33
2023-05-01T11:36:00.057Z,34.12
2023-05-01T11:37:01.930Z,33.77
2023-05-01T11:38:03.872Z,33.06
2023-05-01T11:39:05.780Z,34.50
2023-05-01T11:40:19.215Z,34.54
2023-05-01T11:41:24.246Z,34.68
2023-05-01T11:42:26.176Z,32.49
2023-05-01T11:43:28.212Z,32.86
2023-05-01T11:44:30.803Z,32.50
2023-05-01T11:45:33.675Z,34.61
2023-05-01T11:46:35.786Z,34.25
2023-05-01T11:47:38.380Z,32.11
2023-05-01T11:48:40.404Z,33.55
2023-05-01T11:49:42.332Z,32.72
2023-05-01T11:50:44.222Z,34.25
2023-05-01T11:51:56.624Z,33.58
2023-05-01T11:52:58.561Z,33.25
2023-05-01T11:54:07.875Z,34.79
2023-05-01T11:55:10.805Z,33.61
2023-05-01T11:56:26.472Z,32.67
2023-05-01T11:57:29.353Z,31.95
2023-05-01T11:58:34.651Z,30.57
2023-05-01T11:59:37.289Z,30.65
2023-05-01T12:00:42.891Z,33.40
2023-05-01T12:01:45.836Z,32.55
2023-05-01T12:02:58.559Z,33.09
2023-05-01T12:04:00.688Z,32.46
2023-05-01T12:05:16.159Z,32.49
2023-05-01T12:06:18.099Z,31.01
2023-05-01T12:07:23.454Z,30.39
2023-05-01T12:08:25.792Z,31.13
2023-05-01T12:09:27.810Z,31.82
2023-05-01T12:10:30.580Z,31.56
2023-05-01T12:11:32.634Z,31.26
2023-05-01T12:12:40.083Z,31.36
2023-05-01T12:13:42.315Z,31.42
2023-05-01T12:14:44.247Z,29.93
2023-05-01T12:15:47.279Z,30.66
2023-05-01T12:16:49.749Z,31.48
2023-05-01T12:17:52.653Z,32.01
2023-05-01T12:18:54.596Z,30.98
2023-05-01T12:19:58.120Z,31.64
2023-05-01T12:20:59.986Z,30.65
2023-05-01T12:22:08.795Z,31.46
2023-05-01T12:23:11.968Z,29.71
2023-05-01T12:24:17.608Z,30.50
2023-05-01T12:25:19.837Z,30.53
2023-05-01T12:26:25.573Z,30.18
2023-05-01T12:27:27.537Z,29.94
2023-05-01T12:28:29.427Z,30.55
2023-05-01T12:29:41.509Z,30.29
2023-05-01T12:30:44.187Z,30.47
2023-05-01T12:31:47.183Z,29.83
2023-05-01T12:32:49.183Z,30.54
2023-05-01T12:34:02.085Z,31.52
2023-05-01T12:35:12.906Z,31.66
2023-05-01T12:36:16.138Z,29.87
2023-05-01T12:37:18.070Z,30.04
2023-05-01T12:38:24.089Z,30.30
2023-05-01T12:39:27.145Z,31.11
2023-05-01T12:40:29.208Z,29.13
2023-05-01T12:41:40.290Z,29.26
2023-05-01T12:42:42.530Z,30.35
2023-05-01T12:43:44.556Z,30.36
2023-05-01T12:44:46.684Z,29.33
2023-05-01T12:45:52.802Z,30.29
2023-05-01T12:47:00.973Z,30.86
2023-05-01T12:48:03.424Z,30.16
2023-05-01T12:49:05.436Z,29.70
2023-05-01T12:50:08.314Z,29.54
2023-05-01T12:51:10.319Z,30.35
2023-05-01T12:52:12.379Z,30.62
2023-05-01T12:53:14.287Z,31.22
2023-05-01T12:54:28.507Z,29.97
2023-05-01T12:55:30.355Z,31.25
2023-05-01T12:56:32.988Z,29.89
2023-05-01T12:57:35.077Z,30.20
2023-05-01T12:58:37.430Z,30.63
2023-05-01T12:59:40.398Z,30.54
2023-05-01T13:00:43.840Z,30.11
2023-05-01T13:01:45.767Z,30.77
2023-05-01T13:02:48.605Z,30.30
2023-05-01T13:03:51.157Z,29.53
2023-05-01T13:04:53.254Z,30.08
2023-05-01T13:05:59.233Z,30.34
2023-05-01T13:07:01.421Z,32.66
2023-05-01T13:08:03.330Z,31.64
2023-05-01T13:09:11.457Z,29.93
2023-05-01T13:10:14.197Z,30.27
2023-05-01T13:11:17.201Z,30.24
2023-05-01T13:12:19.161Z,30.21
2023-05-01T13:13:27.880Z,30.03
2023-05-01T13:14:31.122Z,31.49
2023-05-01T13:15:33.249Z,31.16
2023-05-01T13:16:35.310Z,30.89
2023-05-01T13:17:37.913Z,30.35
2023-05-01T13:18:44.658Z,30.66
2023-05-01T13:19:53.208Z,30.00
2023-05-01T13:20:55.163Z,30.65
2023-05-01T13:21:58.446Z,28.92
2023-05-01T13:23:00.324Z,30.39
2023-05-01T13:24:04.826Z,28.92
2023-05-01T13:25:15.360Z,29.09
2023-05-01T13:26:17.573Z,29.07
2023-05-01T13:27:21.614Z,30.25
2023-05-01T13:28:23.582Z,31.40
2023-05-01T13:29:27.091Z,30.79
2023-05-01T13:30:32.903Z,30.07
2023-05-01T13:31:34.892Z,29.64
2023-05-01T13:32:39.723Z,30.43
2023-05-01T13:33:43.201Z,29.05
2023-05-01T13:34:45.344Z,31.00
2023-05-01T13:35:47.145Z,30.14
2023-05-01T13:36:49.043Z,29.95
2023-05-01T13:37:51.928Z,29.45
2023-05-01T13:38:54.710Z,31.00